St Solene — FVDG — position and weather

sailwx.info

Track history (hours):
 
Tides and Currents Weather Stations Pressure Air Temp Water Temp Dewpoint Dewpoint Depression Visibility Wind Speed Wind Dir Waves Ship Positions

St Solene

Last reported at 2014-Oct-31 07:34 UTC. Time now 2014-Oct-31 07:42 UTC.
Position N 43°25' E 004°55'.

Length 104 m; draft 5.2 m.

Type: Tanker. MMSI: 226302000.

Date/timePositionNaut miles runAvg speedWind from/ knotsBaromVisibWave heightAir tempDewpointWater temp
2014-Oct-31 07:34N 43°25' E 004°55'0 0.0
2014-Oct-31 06:33N 43°25' E 004°55'0 0.0
2014-Oct-31 05:34N 43°25' E 004°55'0 0.0
2014-Oct-31 04:34N 43°25' E 004°55'0 0.0
2014-Oct-31 03:33N 43°25' E 004°55'0 0.0
2014-Oct-31 02:34N 43°25' E 004°55'0 0.0
2014-Oct-31 01:33N 43°25' E 004°55'0 0.1
2014-Oct-31 00:34N 43°25' E 004°56'0 0.0
2014-Oct-30 23:34N 43°25' E 004°56'0 0.0
2014-Oct-30 22:34N 43°25' E 004°56'0 0.0
2014-Oct-30 21:33N 43°25' E 004°56'0 0.0
2014-Oct-30 20:34N 43°25' E 004°56'0 0.0
2014-Oct-30 19:34N 43°25' E 004°56'0 0.0
2014-Oct-30 18:34N 43°25' E 004°56'0 0.0
2014-Oct-30 17:34N 43°25' E 004°56'0 0.0
2014-Oct-30 16:34N 43°25' E 004°56'0 0.0
2014-Oct-30 15:34N 43°25' E 004°56'0 0.0
2014-Oct-30 14:34N 43°25' E 004°56'0 0.0
2014-Oct-30 13:34N 43°25' E 004°56'0 0.0
2014-Oct-30 12:33N 43°25' E 004°56'0 0.1
2014-Oct-30 11:34N 43°25' E 004°55'0 0.0
2014-Oct-30 10:34N 43°25' E 004°56'0 0.0
2014-Oct-30 09:34N 43°25' E 004°56'0 0.0
2014-Oct-30 08:34N 43°25' E 004°56'0 0.0
2014-Oct-30 07:34N 43°25' E 004°56'0 0.0
2014-Oct-30 06:34N 43°25' E 004°56'0 0.0
2014-Oct-30 05:33N 43°25' E 004°56'0 0.0
2014-Oct-30 04:34N 43°25' E 004°56'0 0.0
2014-Oct-30 03:33N 43°25' E 004°56'0 0.0
2014-Oct-30 02:34N 43°25' E 004°56'0 0.0
2014-Oct-30 01:33N 43°25' E 004°56'0 0.0
2014-Oct-30 00:34N 43°25' E 004°56'0 0.0
2014-Oct-29 23:33N 43°25' E 004°56'0 0.0
2014-Oct-29 22:34N 43°25' E 004°56'0 0.0
2014-Oct-29 21:34N 43°25' E 004°56'0 0.0
2014-Oct-29 20:34N 43°25' E 004°56'0 0.0
2014-Oct-29 19:34N 43°25' E 004°56'0 0.0
2014-Oct-29 18:33N 43°25' E 004°56'0 0.0
2014-Oct-29 17:34N 43°25' E 004°56'0 0.0
2014-Oct-29 16:34N 43°25' E 004°56'0 0.0
2014-Oct-29 15:33N 43°25' E 004°56'2 1.5
2014-Oct-29 14:33N 43°23' E 004°57'1111.1
2014-Oct-29 13:33N 43°13' E 005°02'2612.2
2014-Oct-29 11:27N 43°04' E 005°35'1212.8
2014-Oct-29 10:33N 43°01' E 005°50'1212.3
2014-Oct-29 09:33N 42°57' E 006°06'1212.4
2014-Oct-29 08:33N 42°57' E 006°23'1313.3
2014-Oct-29 07:33N 42°58' E 006°41'1313.2
2014-Oct-29 06:33N 42°59' E 006°59'1313.2
2014-Oct-29 05:32N 42°60' E 007°18'88 1.7
2014-Oct-27 01:32N 43°10' E 009°17'99 8.1
2014-Oct-26 13:24N 42°56' E 007°03'8 9.9
2014-Oct-26 12:33N 42°55' E 006°52'10 9.5
2014-Oct-26 11:32N 42°53' E 006°39'76 9.4
2014-Oct-26 03:29N 43°16' E 004°60'1010.8
2014-Oct-26 02:33N 43°24' E 004°53'1 1.2
2014-Oct-26 01:32N 43°26' E 004°54'0 0.0
2014-Oct-26 00:32N 43°26' E 004°54'0 0.0
2014-Oct-25 23:32N 43°26' E 004°54'0 0.0
2014-Oct-25 22:32N 43°26' E 004°54'0 0.0
2014-Oct-25 21:32N 43°26' E 004°54'0 0.0
2014-Oct-25 20:26N 43°26' E 004°54'0 0.0
2014-Oct-25 19:32N 43°26' E 004°54'0 0.0
2014-Oct-25 18:32N 43°26' E 004°54'0 0.0
2014-Oct-25 17:32N 43°26' E 004°54'0 0.0
2014-Oct-25 16:32N 43°26' E 004°54'0 0.0
2014-Oct-25 15:32N 43°26' E 004°54'0 0.0
2014-Oct-25 14:32N 43°26' E 004°54'0 0.0
2014-Oct-25 13:29N 43°26' E 004°54'0 0.0
2014-Oct-25 12:32N 43°26' E 004°54'0 0.0
2014-Oct-25 11:32N 43°26' E 004°54'0 0.0
2014-Oct-25 10:32N 43°26' E 004°54'0 0.0
2014-Oct-25 09:32N 43°26' E 004°54'0 0.0
2014-Oct-25 08:32N 43°26' E 004°54'2 1.9
2014-Oct-25 07:33N 43°25' E 004°56'0 0.0
2014-Oct-25 06:33N 43°25' E 004°56'0 0.0
2014-Oct-25 05:33N 43°25' E 004°56'0 0.0
2014-Oct-25 04:33N 43°25' E 004°56'0 0.0
2014-Oct-25 03:33N 43°25' E 004°56'0 0.0
2014-Oct-25 02:30N 43°25' E 004°56'0 0.0
2014-Oct-25 01:33N 43°25' E 004°56'0 0.0
2014-Oct-25 00:33N 43°25' E 004°56'0 0.0
2014-Oct-24 23:33N 43°25' E 004°56'0 0.0
2014-Oct-24 22:33N 43°25' E 004°56'0 0.0
2014-Oct-24 21:33N 43°25' E 004°56'0 0.0
2014-Oct-24 20:33N 43°25' E 004°56'0 0.0
2014-Oct-24 19:33N 43°25' E 004°56'0 0.0
2014-Oct-24 18:33N 43°25' E 004°56'0 0.0
2014-Oct-24 17:33N 43°25' E 004°56'0 0.0
2014-Oct-24 16:33N 43°25' E 004°56'0 0.0
2014-Oct-24 15:33N 43°25' E 004°56'0 0.0
2014-Oct-24 14:33N 43°25' E 004°56'0 0.0
2014-Oct-24 13:33N 43°25' E 004°56'0 0.0
2014-Oct-24 12:33N 43°25' E 004°56'0 0.0
2014-Oct-24 11:33N 43°25' E 004°56'0 0.0
2014-Oct-24 10:33N 43°25' E 004°56'0 0.0
2014-Oct-24 09:33N 43°25' E 004°56'0 0.0
2014-Oct-24 08:33N 43°25' E 004°56'0 0.0
2014-Oct-24 07:33N 43°25' E 004°56'0 0.0
2014-Oct-24 06:33N 43°25' E 004°56'0 0.0
2014-Oct-24 05:30N 43°25' E 004°56'0 0.0
2014-Oct-24 04:33N 43°25' E 004°56'0 0.0
2014-Oct-24 03:33N 43°25' E 004°56'0 0.0
2014-Oct-24 02:33N 43°25' E 004°56'0 0.0
2014-Oct-24 01:33N 43°25' E 004°56'0 0.0
2014-Oct-24 00:33N 43°25' E 004°56'0 0.0
2014-Oct-23 23:30N 43°25' E 004°56'0 0.0
2014-Oct-23 22:33N 43°25' E 004°56'0 0.0
2014-Oct-23 21:33N 43°25' E 004°56'0 0.0
2014-Oct-23 20:33N 43°25' E 004°56'0 0.0
2014-Oct-23 19:33N 43°25' E 004°56'0 0.0
2014-Oct-23 18:33N 43°25' E 004°56'0 0.0
2014-Oct-23 17:33N 43°25' E 004°56'0 0.0
2014-Oct-23 16:33N 43°25' E 004°56'0 0.0
2014-Oct-23 15:33N 43°25' E 004°56'0 0.0
2014-Oct-23 14:33N 43°25' E 004°56'0 0.0
2014-Oct-23 13:33N 43°25' E 004°56'0 0.0
2014-Oct-23 12:33N 43°25' E 004°56'0 0.0
2014-Oct-23 11:33N 43°25' E 004°56'0 0.0
2014-Oct-23 10:33N 43°25' E 004°56'0 0.0
2014-Oct-23 09:33N 43°25' E 004°56'0 0.0
2014-Oct-23 08:33N 43°25' E 004°56'0 0.0
2014-Oct-23 07:33N 43°25' E 004°56'0 0.0
2014-Oct-23 06:33N 43°25' E 004°56'0 0.0
2014-Oct-23 05:33N 43°25' E 004°56'0 0.0
2014-Oct-23 04:33N 43°25' E 004°56'0 0.0
2014-Oct-23 03:33N 43°25' E 004°56'0 0.0
2014-Oct-23 02:33N 43°25' E 004°56'0 0.0
2014-Oct-23 01:30N 43°25' E 004°56'0 0.0
2014-Oct-23 00:33N 43°25' E 004°56'0 0.0
2014-Oct-22 23:33N 43°25' E 004°56'0 0.0
2014-Oct-22 22:33N 43°25' E 004°56'0 0.0
2014-Oct-22 21:33N 43°25' E 004°56'0 0.0
2014-Oct-22 20:33N 43°25' E 004°56'0 0.0
2014-Oct-22 19:33N 43°25' E 004°56'0 0.0
2014-Oct-22 18:33N 43°25' E 004°56'0 0.0
2014-Oct-22 17:33N 43°25' E 004°56'0 0.0
2014-Oct-22 16:33N 43°25' E 004°56'0 0.0
2014-Oct-22 15:30N 43°25' E 004°56'0 0.0
2014-Oct-22 14:33N 43°25' E 004°56'0 0.0
2014-Oct-22 13:33N 43°25' E 004°56'0 0.0
2014-Oct-22 12:33N 43°25' E 004°56'0 0.0
2014-Oct-22 11:33N 43°25' E 004°56'0 0.0
2014-Oct-22 10:33N 43°25' E 004°56'0 0.0
2014-Oct-22 09:27N 43°25' E 004°56'0 0.0
2014-Oct-22 08:33N 43°25' E 004°56'0 0.0
2014-Oct-22 07:33N 43°25' E 004°56'0 0.0
2014-Oct-22 06:33N 43°25' E 004°56'0 0.0
2014-Oct-22 05:33N 43°25' E 004°56'0 0.0
2014-Oct-22 04:33N 43°25' E 004°56'0 0.0
2014-Oct-22 03:33N 43°25' E 004°56'0 0.0
2014-Oct-22 02:33N 43°25' E 004°56'0 0.0
2014-Oct-22 01:33N 43°25' E 004°56'0 0.0
2014-Oct-22 00:33N 43°25' E 004°56'0 0.0
2014-Oct-21 23:33N 43°25' E 004°56'0 0.1
2014-Oct-21 22:27N 43°25' E 004°56'0 0.0
2014-Oct-21 21:33N 43°25' E 004°56'0 0.0
2014-Oct-21 20:33N 43°25' E 004°56'0 0.0
2014-Oct-21 19:33N 43°25' E 004°56'0 0.0
2014-Oct-21 18:33N 43°25' E 004°56'0 0.0
2014-Oct-21 17:33N 43°25' E 004°56'0 0.0
2014-Oct-21 16:33N 43°25' E 004°56'0 0.0
2014-Oct-21 15:33N 43°25' E 004°56'0 0.0
2014-Oct-21 14:33N 43°25' E 004°56'0 0.0
2014-Oct-21 13:33N 43°25' E 004°56'0 0.0
2014-Oct-21 12:33N 43°25' E 004°56'0 0.0
2014-Oct-21 11:33N 43°25' E 004°56'0 0.0
2014-Oct-21 10:33N 43°25' E 004°56'0 0.0
2014-Oct-21 09:33N 43°25' E 004°56'0 0.0
2014-Oct-21 08:33N 43°25' E 004°56'  
Track history (hours):
 
Tides and Currents Weather Stations Pressure Air Temp Water Temp Dewpoint Dewpoint Depression Visibility Wind Speed Wind Dir Waves Ship Positions

St Solene

Last reported at 2014-Oct-31 07:34 UTC. Time now 2014-Oct-31 07:42 UTC.
Position N 43°25' E 004°55'.

Length 104 m; draft 5.2 m.

Type: Tanker. MMSI: 226302000.

Date/timePositionNaut miles runAvg speedWind from/ knotsBaromVisibWave heightAir tempDewpointWater temp
2014-Oct-31 07:34N 43°25' E 004°55'0 0.0
2014-Oct-31 06:33N 43°25' E 004°55'0 0.0
2014-Oct-31 05:34N 43°25' E 004°55'0 0.0
2014-Oct-31 04:34N 43°25' E 004°55'0 0.0
2014-Oct-31 03:33N 43°25' E 004°55'0 0.0
2014-Oct-31 02:34N 43°25' E 004°55'0 0.0
2014-Oct-31 01:33N 43°25' E 004°55'0 0.1
2014-Oct-31 00:34N 43°25' E 004°56'0 0.0
2014-Oct-30 23:34N 43°25' E 004°56'0 0.0
2014-Oct-30 22:34N 43°25' E 004°56'0 0.0
2014-Oct-30 21:33N 43°25' E 004°56'0 0.0
2014-Oct-30 20:34N 43°25' E 004°56'0 0.0
2014-Oct-30 19:34N 43°25' E 004°56'0 0.0
2014-Oct-30 18:34N 43°25' E 004°56'0 0.0
2014-Oct-30 17:34N 43°25' E 004°56'0 0.0
2014-Oct-30 16:34N 43°25' E 004°56'0 0.0
2014-Oct-30 15:34N 43°25' E 004°56'0 0.0
2014-Oct-30 14:34N 43°25' E 004°56'0 0.0
2014-Oct-30 13:34N 43°25' E 004°56'0 0.0
2014-Oct-30 12:33N 43°25' E 004°56'0 0.1
2014-Oct-30 11:34N 43°25' E 004°55'0 0.0
2014-Oct-30 10:34N 43°25' E 004°56'0 0.0
2014-Oct-30 09:34N 43°25' E 004°56'0 0.0
2014-Oct-30 08:34N 43°25' E 004°56'0 0.0
2014-Oct-30 07:34N 43°25' E 004°56'0 0.0
2014-Oct-30 06:34N 43°25' E 004°56'0 0.0
2014-Oct-30 05:33N 43°25' E 004°56'0 0.0
2014-Oct-30 04:34N 43°25' E 004°56'0 0.0
2014-Oct-30 03:33N 43°25' E 004°56'0 0.0
2014-Oct-30 02:34N 43°25' E 004°56'0 0.0
2014-Oct-30 01:33N 43°25' E 004°56'0 0.0
2014-Oct-30 00:34N 43°25' E 004°56'0 0.0
2014-Oct-29 23:33N 43°25' E 004°56'0 0.0
2014-Oct-29 22:34N 43°25' E 004°56'0 0.0
2014-Oct-29 21:34N 43°25' E 004°56'0 0.0
2014-Oct-29 20:34N 43°25' E 004°56'0 0.0
2014-Oct-29 19:34N 43°25' E 004°56'0 0.0
2014-Oct-29 18:33N 43°25' E 004°56'0 0.0
2014-Oct-29 17:34N 43°25' E 004°56'0 0.0
2014-Oct-29 16:34N 43°25' E 004°56'0 0.0
2014-Oct-29 15:33N 43°25' E 004°56'2 1.5
2014-Oct-29 14:33N 43°23' E 004°57'1111.1
2014-Oct-29 13:33N 43°13' E 005°02'2612.2
2014-Oct-29 11:27N 43°04' E 005°35'1212.8
2014-Oct-29 10:33N 43°01' E 005°50'1212.3
2014-Oct-29 09:33N 42°57' E 006°06'1212.4
2014-Oct-29 08:33N 42°57' E 006°23'1313.3
2014-Oct-29 07:33N 42°58' E 006°41'1313.2
2014-Oct-29 06:33N 42°59' E 006°59'1313.2
2014-Oct-29 05:32N 42°60' E 007°18'88 1.7
2014-Oct-27 01:32N 43°10' E 009°17'99 8.1
2014-Oct-26 13:24N 42°56' E 007°03'8 9.9
2014-Oct-26 12:33N 42°55' E 006°52'10 9.5
2014-Oct-26 11:32N 42°53' E 006°39'76 9.4
2014-Oct-26 03:29N 43°16' E 004°60'1010.8
2014-Oct-26 02:33N 43°24' E 004°53'1 1.2
2014-Oct-26 01:32N 43°26' E 004°54'0 0.0
2014-Oct-26 00:32N 43°26' E 004°54'0 0.0
2014-Oct-25 23:32N 43°26' E 004°54'0 0.0
2014-Oct-25 22:32N 43°26' E 004°54'0 0.0
2014-Oct-25 21:32N 43°26' E 004°54'0 0.0
2014-Oct-25 20:26N 43°26' E 004°54'0 0.0
2014-Oct-25 19:32N 43°26' E 004°54'0 0.0
2014-Oct-25 18:32N 43°26' E 004°54'0 0.0
2014-Oct-25 17:32N 43°26' E 004°54'0 0.0
2014-Oct-25 16:32N 43°26' E 004°54'0 0.0
2014-Oct-25 15:32N 43°26' E 004°54'0 0.0
2014-Oct-25 14:32N 43°26' E 004°54'0 0.0
2014-Oct-25 13:29N 43°26' E 004°54'0 0.0
2014-Oct-25 12:32N 43°26' E 004°54'0 0.0
2014-Oct-25 11:32N 43°26' E 004°54'0 0.0
2014-Oct-25 10:32N 43°26' E 004°54'0 0.0
2014-Oct-25 09:32N 43°26' E 004°54'0 0.0
2014-Oct-25 08:32N 43°26' E 004°54'2 1.9
2014-Oct-25 07:33N 43°25' E 004°56'0 0.0
2014-Oct-25 06:33N 43°25' E 004°56'0 0.0
2014-Oct-25 05:33N 43°25' E 004°56'0 0.0
2014-Oct-25 04:33N 43°25' E 004°56'0 0.0
2014-Oct-25 03:33N 43°25' E 004°56'0 0.0
2014-Oct-25 02:30N 43°25' E 004°56'0 0.0
2014-Oct-25 01:33N 43°25' E 004°56'0 0.0
2014-Oct-25 00:33N 43°25' E 004°56'0 0.0
2014-Oct-24 23:33N 43°25' E 004°56'0 0.0
2014-Oct-24 22:33N 43°25' E 004°56'0 0.0
2014-Oct-24 21:33N 43°25' E 004°56'0 0.0
2014-Oct-24 20:33N 43°25' E 004°56'0 0.0
2014-Oct-24 19:33N 43°25' E 004°56'0 0.0
2014-Oct-24 18:33N 43°25' E 004°56'0 0.0
2014-Oct-24 17:33N 43°25' E 004°56'0 0.0
2014-Oct-24 16:33N 43°25' E 004°56'0 0.0
2014-Oct-24 15:33N 43°25' E 004°56'0 0.0
2014-Oct-24 14:33N 43°25' E 004°56'0 0.0
2014-Oct-24 13:33N 43°25' E 004°56'0 0.0
2014-Oct-24 12:33N 43°25' E 004°56'0 0.0
2014-Oct-24 11:33N 43°25' E 004°56'0 0.0
2014-Oct-24 10:33N 43°25' E 004°56'0 0.0
2014-Oct-24 09:33N 43°25' E 004°56'0 0.0
2014-Oct-24 08:33N 43°25' E 004°56'0 0.0
2014-Oct-24 07:33N 43°25' E 004°56'0 0.0
2014-Oct-24 06:33N 43°25' E 004°56'0 0.0
2014-Oct-24 05:30N 43°25' E 004°56'0 0.0
2014-Oct-24 04:33N 43°25' E 004°56'0 0.0
2014-Oct-24 03:33N 43°25' E 004°56'0 0.0
2014-Oct-24 02:33N 43°25' E 004°56'0 0.0
2014-Oct-24 01:33N 43°25' E 004°56'0 0.0
2014-Oct-24 00:33N 43°25' E 004°56'0 0.0
2014-Oct-23 23:30N 43°25' E 004°56'0 0.0
2014-Oct-23 22:33N 43°25' E 004°56'0 0.0
2014-Oct-23 21:33N 43°25' E 004°56'0 0.0
2014-Oct-23 20:33N 43°25' E 004°56'0 0.0
2014-Oct-23 19:33N 43°25' E 004°56'0 0.0
2014-Oct-23 18:33N 43°25' E 004°56'0 0.0
2014-Oct-23 17:33N 43°25' E 004°56'0 0.0
2014-Oct-23 16:33N 43°25' E 004°56'0 0.0
2014-Oct-23 15:33N 43°25' E 004°56'0 0.0
2014-Oct-23 14:33N 43°25' E 004°56'0 0.0
2014-Oct-23 13:33N 43°25' E 004°56'0 0.0
2014-Oct-23 12:33N 43°25' E 004°56'0 0.0
2014-Oct-23 11:33N 43°25' E 004°56'0 0.0
2014-Oct-23 10:33N 43°25' E 004°56'0 0.0
2014-Oct-23 09:33N 43°25' E 004°56'0 0.0
2014-Oct-23 08:33N 43°25' E 004°56'0 0.0
2014-Oct-23 07:33N 43°25' E 004°56'0 0.0
2014-Oct-23 06:33N 43°25' E 004°56'0 0.0
2014-Oct-23 05:33N 43°25' E 004°56'0 0.0
2014-Oct-23 04:33N 43°25' E 004°56'0 0.0
2014-Oct-23 03:33N 43°25' E 004°56'0 0.0
2014-Oct-23 02:33N 43°25' E 004°56'0 0.0
2014-Oct-23 01:30N 43°25' E 004°56'0 0.0
2014-Oct-23 00:33N 43°25' E 004°56'0 0.0
2014-Oct-22 23:33N 43°25' E 004°56'0 0.0
2014-Oct-22 22:33N 43°25' E 004°56'0 0.0
2014-Oct-22 21:33N 43°25' E 004°56'0 0.0
2014-Oct-22 20:33N 43°25' E 004°56'0 0.0
2014-Oct-22 19:33N 43°25' E 004°56'0 0.0
2014-Oct-22 18:33N 43°25' E 004°56'0 0.0
2014-Oct-22 17:33N 43°25' E 004°56'0 0.0
2014-Oct-22 16:33N 43°25' E 004°56'0 0.0
2014-Oct-22 15:30N 43°25' E 004°56'0 0.0
2014-Oct-22 14:33N 43°25' E 004°56'0 0.0
2014-Oct-22 13:33N 43°25' E 004°56'0 0.0
2014-Oct-22 12:33N 43°25' E 004°56'0 0.0
2014-Oct-22 11:33N 43°25' E 004°56'0 0.0
2014-Oct-22 10:33N 43°25' E 004°56'0 0.0
2014-Oct-22 09:27N 43°25' E 004°56'0 0.0
2014-Oct-22 08:33N 43°25' E 004°56'0 0.0
2014-Oct-22 07:33N 43°25' E 004°56'0 0.0
2014-Oct-22 06:33N 43°25' E 004°56'0 0.0
2014-Oct-22 05:33N 43°25' E 004°56'0 0.0
2014-Oct-22 04:33N 43°25' E 004°56'0 0.0
2014-Oct-22 03:33N 43°25' E 004°56'0 0.0
2014-Oct-22 02:33N 43°25' E 004°56'0 0.0
2014-Oct-22 01:33N 43°25' E 004°56'0 0.0
2014-Oct-22 00:33N 43°25' E 004°56'0 0.0
2014-Oct-21 23:33N 43°25' E 004°56'0 0.1
2014-Oct-21 22:27N 43°25' E 004°56'0 0.0
2014-Oct-21 21:33N 43°25' E 004°56'0 0.0
2014-Oct-21 20:33N 43°25' E 004°56'0 0.0
2014-Oct-21 19:33N 43°25' E 004°56'0 0.0
2014-Oct-21 18:33N 43°25' E 004°56'0 0.0
2014-Oct-21 17:33N 43°25' E 004°56'0 0.0
2014-Oct-21 16:33N 43°25' E 004°56'0 0.0
2014-Oct-21 15:33N 43°25' E 004°56'0 0.0
2014-Oct-21 14:33N 43°25' E 004°56'0 0.0
2014-Oct-21 13:33N 43°25' E 004°56'0 0.0
2014-Oct-21 12:33N 43°25' E 004°56'0 0.0
2014-Oct-21 11:33N 43°25' E 004°56'0 0.0
2014-Oct-21 10:33N 43°25' E 004°56'0 0.0
2014-Oct-21 09:33N 43°25' E 004°56'0 0.0
2014-Oct-21 08:33N 43°25' E 004°56'  

Dump ship's entire track history